sensor_id;sensor_type;location;lat;lon;timestamp;temperature;humidity
7048;DHT22;3565;53.254;10.352;2023-07-31T00:00:48;14.00;1.00
7048;DHT22;3565;53.254;10.352;2023-07-31T00:05:54;14.10;1.00
7048;DHT22;3565;53.254;10.352;2023-07-31T00:08:23;13.90;1.00
7048;DHT22;3565;53.254;10.352;2023-07-31T00:10:53;14.00;1.00
7048;DHT22;3565;53.254;10.352;2023-07-31T00:13:21;14.00;1.00
7048;DHT22;3565;53.254;10.352;2023-07-31T00:18:28;14.00;1.00
7048;DHT22;3565;53.254;10.352;2023-07-31T00:20:57;14.00;1.00
7048;DHT22;3565;53.254;10.352;2023-07-31T00:23:26;14.00;1.00
7048;DHT22;3565;53.254;10.352;2023-07-31T00:28:32;14.10;1.00
7048;DHT22;3565;53.254;10.352;2023-07-31T00:31:01;14.10;1.00
7048;DHT22;3565;53.254;10.352;2023-07-31T00:36:08;14.20;1.00
7048;DHT22;3565;53.254;10.352;2023-07-31T00:38:37;14.20;1.00
7048;DHT22;3565;53.254;10.352;2023-07-31T00:41:06;14.30;1.00
7048;DHT22;3565;53.254;10.352;2023-07-31T00:46:12;14.30;1.00
7048;DHT22;3565;53.254;10.352;2023-07-31T00:48:42;14.40;1.00
7048;DHT22;3565;53.254;10.352;2023-07-31T00:51:11;14.40;1.00
7048;DHT22;3565;53.254;10.352;2023-07-31T00:53:41;14.50;1.00
7048;DHT22;3565;53.254;10.352;2023-07-31T00:56:12;14.50;1.00
7048;DHT22;3565;53.254;10.352;2023-07-31T00:58:41;14.50;1.00
7048;DHT22;3565;53.254;10.352;2023-07-31T01:03:47;14.50;1.00
7048;DHT22;3565;53.254;10.352;2023-07-31T01:09:00;14.70;1.00
7048;DHT22;3565;53.254;10.352;2023-07-31T01:11:33;14.70;1.00
7048;DHT22;3565;53.254;10.352;2023-07-31T01:16:38;14.70;1.00
7048;DHT22;3565;53.254;10.352;2023-07-31T01:21:57;14.80;1.00
7048;DHT22;3565;53.254;10.352;2023-07-31T01:27:09;14.80;1.00
7048;DHT22;3565;53.254;10.352;2023-07-31T01:29:42;14.80;1.00
7048;DHT22;3565;53.254;10.352;2023-07-31T01:34:49;14.80;1.00
7048;DHT22;3565;53.254;10.352;2023-07-31T01:39:57;14.90;1.00
7048;DHT22;3565;53.254;10.352;2023-07-31T01:42:26;14.90;1.00
7048;DHT22;3565;53.254;10.352;2023-07-31T01:47:32;14.90;1.00
7048;DHT22;3565;53.254;10.352;2023-07-31T01:52:38;14.90;1.00
7048;DHT22;3565;53.254;10.352;2023-07-31T01:57:44;14.80;1.00
7048;DHT22;3565;53.254;10.352;2023-07-31T02:00:14;14.80;1.00
7048;DHT22;3565;53.254;10.352;2023-07-31T02:02:43;14.80;1.00
7048;DHT22;3565;53.254;10.352;2023-07-31T02:07:49;14.80;1.00
7048;DHT22;3565;53.254;10.352;2023-07-31T02:10:18;14.70;1.00
7048;DHT22;3565;53.254;10.352;2023-07-31T02:12:48;14.70;1.00
7048;DHT22;3565;53.254;10.352;2023-07-31T02:17:54;14.70;1.00
7048;DHT22;3565;53.254;10.352;2023-07-31T02:20:24;14.70;1.00
7048;DHT22;3565;53.254;10.352;2023-07-31T02:22:53;14.70;1.00
7048;DHT22;3565;53.254;10.352;2023-07-31T02:27:59;14.70;1.00
7048;DHT22;3565;53.254;10.352;2023-07-31T02:30:28;14.70;1.00
7048;DHT22;3565;53.254;10.352;2023-07-31T02:32:57;14.60;1.00
7048;DHT22;3565;53.254;10.352;2023-07-31T02:38:04;14.60;1.00
7048;DHT22;3565;53.254;10.352;2023-07-31T02:40:32;14.60;1.00
7048;DHT22;3565;53.254;10.352;2023-07-31T02:43:01;14.60;1.00
7048;DHT22;3565;53.254;10.352;2023-07-31T02:48:07;14.60;1.00
7048;DHT22;3565;53.254;10.352;2023-07-31T02:50:36;14.70;1.00
7048;DHT22;3565;53.254;10.352;2023-07-31T02:53:05;14.70;1.00
7048;DHT22;3565;53.254;10.352;2023-07-31T02:58:13;14.70;1.00
7048;DHT22;3565;53.254;10.352;2023-07-31T03:00:44;14.80;1.00
7048;DHT22;3565;53.254;10.352;2023-07-31T03:05:50;14.80;1.00
7048;DHT22;3565;53.254;10.352;2023-07-31T03:08:20;14.80;1.00
7048;DHT22;3565;53.254;10.352;2023-07-31T03:10:49;14.80;1.00
7048;DHT22;3565;53.254;10.352;2023-07-31T03:13:18;14.80;1.00
7048;DHT22;3565;53.254;10.352;2023-07-31T03:18:26;14.80;1.00
7048;DHT22;3565;53.254;10.352;2023-07-31T03:20:55;14.80;1.00
7048;DHT22;3565;53.254;10.352;2023-07-31T03:23:24;14.90;1.00
7048;DHT22;3565;53.254;10.352;2023-07-31T03:28:36;15.00;1.00
7048;DHT22;3565;53.254;10.352;2023-07-31T03:31:05;15.10;1.00
7048;DHT22;3565;53.254;10.352;2023-07-31T03:36:13;15.00;1.00
7048;DHT22;3565;53.254;10.352;2023-07-31T03:38:42;15.10;1.00
7048;DHT22;3565;53.254;10.352;2023-07-31T03:41:10;15.10;1.00
7048;DHT22;3565;53.254;10.352;2023-07-31T03:46:17;15.10;1.00
7048;DHT22;3565;53.254;10.352;2023-07-31T03:48:46;15.20;1.00
7048;DHT22;3565;53.254;10.352;2023-07-31T03:51:15;15.10;1.00
7048;DHT22;3565;53.254;10.352;2023-07-31T03:53:44;15.10;1.00
7048;DHT22;3565;53.254;10.352;2023-07-31T03:58:50;15.20;1.00
7048;DHT22;3565;53.254;10.352;2023-07-31T04:01:20;15.20;1.00
7048;DHT22;3565;53.254;10.352;2023-07-31T04:03:50;15.20;1.00
7048;DHT22;3565;53.254;10.352;2023-07-31T04:08:56;15.20;1.00
7048;DHT22;3565;53.254;10.352;2023-07-31T04:11:25;15.10;1.00
7048;DHT22;3565;53.254;10.352;2023-07-31T04:13:54;15.10;1.00
7048;DHT22;3565;53.254;10.352;2023-07-31T04:16:23;15.10;1.00
7048;DHT22;3565;53.254;10.352;2023-07-31T04:18:52;15.10;1.00
7048;DHT22;3565;53.254;10.352;2023-07-31T04:21:21;15.20;1.00
7048;DHT22;3565;53.254;10.352;2023-07-31T04:23:50;15.20;1.00
7048;DHT22;3565;53.254;10.352;2023-07-31T04:26:21;15.10;1.00
7048;DHT22;3565;53.254;10.352;2023-07-31T04:28:50;15.10;1.00
7048;DHT22;3565;53.254;10.352;2023-07-31T04:31:20;15.10;1.00
7048;DHT22;3565;53.254;10.352;2023-07-31T04:33:49;15.10;1.00
7048;DHT22;3565;53.254;10.352;2023-07-31T04:38:55;15.10;1.00
7048;DHT22;3565;53.254;10.352;2023-07-31T04:41:24;15.20;1.00
7048;DHT22;3565;53.254;10.352;2023-07-31T04:43:53;15.10;1.00
7048;DHT22;3565;53.254;10.352;2023-07-31T04:46:22;15.10;1.00
7048;DHT22;3565;53.254;10.352;2023-07-31T04:48:51;15.10;1.00
7048;DHT22;3565;53.254;10.352;2023-07-31T04:56:37;15.20;1.00
7048;DHT22;3565;53.254;10.352;2023-07-31T04:59:06;15.20;1.00
7048;DHT22;3565;53.254;10.352;2023-07-31T05:01:35;15.20;1.00
7048;DHT22;3565;53.254;10.352;2023-07-31T05:06:43;15.10;1.00
7048;DHT22;3565;53.254;10.352;2023-07-31T05:11:49;15.20;1.00
7048;DHT22;3565;53.254;10.352;2023-07-31T05:16:56;15.20;1.00
7048;DHT22;3565;53.254;10.352;2023-07-31T05:19:25;15.30;1.00
7048;DHT22;3565;53.254;10.352;2023-07-31T05:21:54;15.30;1.00
7048;DHT22;3565;53.254;10.352;2023-07-31T05:24:23;15.30;1.00
7048;DHT22;3565;53.254;10.352;2023-07-31T05:26:55;15.30;1.00
7048;DHT22;3565;53.254;10.352;2023-07-31T05:29:24;15.40;1.00
7048;DHT22;3565;53.254;10.352;2023-07-31T05:31:53;15.40;1.00
7048;DHT22;3565;53.254;10.352;2023-07-31T05:34:22;15.50;1.00
7048;DHT22;3565;53.254;10.352;2023-07-31T05:36:51;15.60;1.00
7048;DHT22;3565;53.254;10.352;2023-07-31T05:41:57;15.70;1.00
7048;DHT22;3565;53.254;10.352;2023-07-31T05:47:06;15.80;1.00
7048;DHT22;3565;53.254;10.352;2023-07-31T05:49:35;15.80;1.00
7048;DHT22;3565;53.254;10.352;2023-07-31T05:52:05;15.80;1.00
7048;DHT22;3565;53.254;10.352;2023-07-31T05:57:12;16.10;1.00
7048;DHT22;3565;53.254;10.352;2023-07-31T05:59:41;16.10;1.00
7048;DHT22;3565;53.254;10.352;2023-07-31T06:04:48;16.20;1.00
7048;DHT22;3565;53.254;10.352;2023-07-31T06:09:55;16.30;1.00
7048;DHT22;3565;53.254;10.352;2023-07-31T06:12:25;16.50;1.00
7048;DHT22;3565;53.254;10.352;2023-07-31T06:17:32;16.50;1.00
7048;DHT22;3565;53.254;10.352;2023-07-31T06:20:01;16.30;1.00
7048;DHT22;3565;53.254;10.352;2023-07-31T06:22:32;16.40;1.00
7048;DHT22;3565;53.254;10.352;2023-07-31T06:27:39;16.60;1.00
7048;DHT22;3565;53.254;10.352;2023-07-31T06:30:10;16.70;1.00
7048;DHT22;3565;53.254;10.352;2023-07-31T06:32:39;16.80;1.00
7048;DHT22;3565;53.254;10.352;2023-07-31T06:35:09;17.00;1.00
7048;DHT22;3565;53.254;10.352;2023-07-31T06:37:38;17.00;1.00
7048;DHT22;3565;53.254;10.352;2023-07-31T06:40:11;16.80;1.00
7048;DHT22;3565;53.254;10.352;2023-07-31T06:42:40;16.70;1.00
7048;DHT22;3565;53.254;10.352;2023-07-31T06:45:10;16.80;1.00
7048;DHT22;3565;53.254;10.352;2023-07-31T06:47:39;16.90;1.00
7048;DHT22;3565;53.254;10.352;2023-07-31T06:50:09;17.00;1.00
7048;DHT22;3565;53.254;10.352;2023-07-31T06:52:38;16.90;1.00
7048;DHT22;3565;53.254;10.352;2023-07-31T06:55:18;16.90;1.00
7048;DHT22;3565;53.254;10.352;2023-07-31T06:57:47;17.30;1.00
7048;DHT22;3565;53.254;10.352;2023-07-31T07:00:17;17.50;1.00
7048;DHT22;3565;53.254;10.352;2023-07-31T07:02:47;17.30;1.00
7048;DHT22;3565;53.254;10.352;2023-07-31T07:05:16;17.50;1.00
7048;DHT22;3565;53.254;10.352;2023-07-31T07:07:46;17.90;1.00
7048;DHT22;3565;53.254;10.352;2023-07-31T07:10:15;17.70;1.00
7048;DHT22;3565;53.254;10.352;2023-07-31T07:12:43;17.70;1.00
7048;DHT22;3565;53.254;10.352;2023-07-31T07:15:12;17.90;1.00
7048;DHT22;3565;53.254;10.352;2023-07-31T07:17:41;18.10;1.00
7048;DHT22;3565;53.254;10.352;2023-07-31T07:20:11;18.00;1.00
7048;DHT22;3565;53.254;10.352;2023-07-31T07:22:40;18.00;1.00
7048;DHT22;3565;53.254;10.352;2023-07-31T07:25:10;18.10;1.00
7048;DHT22;3565;53.254;10.352;2023-07-31T07:27:39;18.10;1.00
7048;DHT22;3565;53.254;10.352;2023-07-31T07:30:10;17.90;1.00
7048;DHT22;3565;53.254;10.352;2023-07-31T07:32:39;17.70;1.00
7048;DHT22;3565;53.254;10.352;2023-07-31T07:35:09;17.60;1.00
7048;DHT22;3565;53.254;10.352;2023-07-31T07:37:39;17.50;1.00
7048;DHT22;3565;53.254;10.352;2023-07-31T07:40:09;17.40;1.00
7048;DHT22;3565;53.254;10.352;2023-07-31T07:42:38;17.40;1.00
7048;DHT22;3565;53.254;10.352;2023-07-31T07:45:09;17.40;1.00
7048;DHT22;3565;53.254;10.352;2023-07-31T07:47:40;17.10;1.00
7048;DHT22;3565;53.254;10.352;2023-07-31T07:50:10;17.30;1.00
7048;DHT22;3565;53.254;10.352;2023-07-31T07:52:39;17.40;1.00
7048;DHT22;3565;53.254;10.352;2023-07-31T07:55:09;17.30;1.00
7048;DHT22;3565;53.254;10.352;2023-07-31T08:00:17;17.50;1.00
7048;DHT22;3565;53.254;10.352;2023-07-31T08:02:46;17.50;1.00
7048;DHT22;3565;53.254;10.352;2023-07-31T08:05:15;17.50;1.00
7048;DHT22;3565;53.254;10.352;2023-07-31T08:07:45;17.60;1.00
7048;DHT22;3565;53.254;10.352;2023-07-31T08:10:14;17.50;1.00
7048;DHT22;3565;53.254;10.352;2023-07-31T08:12:43;17.50;1.00
7048;DHT22;3565;53.254;10.352;2023-07-31T08:15:11;17.60;1.00
7048;DHT22;3565;53.254;10.352;2023-07-31T08:17:40;17.40;1.00
7048;DHT22;3565;53.254;10.352;2023-07-31T08:20:12;17.00;1.00
7048;DHT22;3565;53.254;10.352;2023-07-31T08:22:41;17.30;1.00
7048;DHT22;3565;53.254;10.352;2023-07-31T08:25:10;17.30;1.00
7048;DHT22;3565;53.254;10.352;2023-07-31T08:27:43;17.40;1.00
7048;DHT22;3565;53.254;10.352;2023-07-31T08:30:12;17.50;1.00
7048;DHT22;3565;53.254;10.352;2023-07-31T08:32:42;17.60;1.00
7048;DHT22;3565;53.254;10.352;2023-07-31T08:35:13;17.40;1.00
7048;DHT22;3565;53.254;10.352;2023-07-31T08:37:42;17.50;1.00
7048;DHT22;3565;53.254;10.352;2023-07-31T08:40:11;17.50;1.00
7048;DHT22;3565;53.254;10.352;2023-07-31T08:42:48;17.60;1.00
7048;DHT22;3565;53.254;10.352;2023-07-31T08:45:18;17.70;1.00
7048;DHT22;3565;53.254;10.352;2023-07-31T08:47:48;17.50;1.00
7048;DHT22;3565;53.254;10.352;2023-07-31T08:50:19;17.40;1.00
7048;DHT22;3565;53.254;10.352;2023-07-31T08:52:49;17.40;1.00
7048;DHT22;3565;53.254;10.352;2023-07-31T08:55:19;17.30;1.00
7048;DHT22;3565;53.254;10.352;2023-07-31T08:57:51;17.30;1.00
7048;DHT22;3565;53.254;10.352;2023-07-31T09:00:21;17.40;1.00
7048;DHT22;3565;53.254;10.352;2023-07-31T09:02:56;17.40;1.00
7048;DHT22;3565;53.254;10.352;2023-07-31T09:08:03;17.60;1.00
7048;DHT22;3565;53.254;10.352;2023-07-31T09:13:10;17.90;1.00
7048;DHT22;3565;53.254;10.352;2023-07-31T09:15:40;18.00;1.00
7048;DHT22;3565;53.254;10.352;2023-07-31T09:18:09;17.80;1.00
7048;DHT22;3565;53.254;10.352;2023-07-31T09:20:39;17.80;1.00
7048;DHT22;3565;53.254;10.352;2023-07-31T09:23:09;17.80;1.00
7048;DHT22;3565;53.254;10.352;2023-07-31T09:25:40;18.00;1.00
7048;DHT22;3565;53.254;10.352;2023-07-31T09:28:11;18.00;1.00
7048;DHT22;3565;53.254;10.352;2023-07-31T09:33:30;17.90;1.00
7048;DHT22;3565;53.254;10.352;2023-07-31T09:36:02;18.00;1.00
7048;DHT22;3565;53.254;10.352;2023-07-31T09:41:16;18.10;1.00
7048;DHT22;3565;53.254;10.352;2023-07-31T09:43:58;18.30;1.00
7048;DHT22;3565;53.254;10.352;2023-07-31T09:46:30;18.40;1.00
7048;DHT22;3565;53.254;10.352;2023-07-31T09:49:08;18.40;1.00
7048;DHT22;3565;53.254;10.352;2023-07-31T09:51:39;18.60;1.00
7048;DHT22;3565;53.254;10.352;2023-07-31T09:54:21;18.40;1.00
7048;DHT22;3565;53.254;10.352;2023-07-31T09:57:09;18.60;1.00
7048;DHT22;3565;53.254;10.352;2023-07-31T09:59:41;18.90;1.00
7048;DHT22;3565;53.254;10.352;2023-07-31T10:02:33;18.90;1.00
7048;DHT22;3565;53.254;10.352;2023-07-31T10:05:07;18.90;1.00
7048;DHT22;3565;53.254;10.352;2023-07-31T10:07:51;19.10;1.00
7048;DHT22;3565;53.254;10.352;2023-07-31T10:13:10;18.80;1.00
7048;DHT22;3565;53.254;10.352;2023-07-31T10:15:41;18.80;1.00
7048;DHT22;3565;53.254;10.352;2023-07-31T10:18:12;18.80;1.00
7048;DHT22;3565;53.254;10.352;2023-07-31T10:20:48;19.00;1.00
7048;DHT22;3565;53.254;10.352;2023-07-31T10:26:03;19.00;1.00
7048;DHT22;3565;53.254;10.352;2023-07-31T10:28:37;19.00;1.00
7048;DHT22;3565;53.254;10.352;2023-07-31T10:31:06;19.00;1.00
7048;DHT22;3565;53.254;10.352;2023-07-31T10:33:41;19.20;1.00
7048;DHT22;3565;53.254;10.352;2023-07-31T10:36:14;19.70;1.00
7048;DHT22;3565;53.254;10.352;2023-07-31T10:38:44;19.60;1.00
7048;DHT22;3565;53.254;10.352;2023-07-31T10:41:13;19.70;1.00
7048;DHT22;3565;53.254;10.352;2023-07-31T10:43:42;19.40;1.00
7048;DHT22;3565;53.254;10.352;2023-07-31T10:46:13;19.70;1.00
7048;DHT22;3565;53.254;10.352;2023-07-31T10:48:43;19.90;1.00
7048;DHT22;3565;53.254;10.352;2023-07-31T10:51:13;20.10;1.00
7048;DHT22;3565;53.254;10.352;2023-07-31T10:53:43;19.20;1.00
7048;DHT22;3565;53.254;10.352;2023-07-31T10:56:12;19.10;1.00
7048;DHT22;3565;53.254;10.352;2023-07-31T10:58:45;19.10;1.00
7048;DHT22;3565;53.254;10.352;2023-07-31T11:01:14;19.30;1.00
7048;DHT22;3565;53.254;10.352;2023-07-31T11:03:45;19.30;1.00
7048;DHT22;3565;53.254;10.352;2023-07-31T11:06:16;19.20;1.00
7048;DHT22;3565;53.254;10.352;2023-07-31T11:08:46;19.10;1.00
7048;DHT22;3565;53.254;10.352;2023-07-31T11:11:17;19.20;1.00
7048;DHT22;3565;53.254;10.352;2023-07-31T11:13:47;19.50;1.00
7048;DHT22;3565;53.254;10.352;2023-07-31T11:18:56;19.60;1.00
7048;DHT22;3565;53.254;10.352;2023-07-31T11:21:25;19.70;1.00
7048;DHT22;3565;53.254;10.352;2023-07-31T11:26:35;19.70;1.00
7048;DHT22;3565;53.254;10.352;2023-07-31T11:31:44;19.80;1.00
7048;DHT22;3565;53.254;10.352;2023-07-31T11:34:14;20.00;1.00
7048;DHT22;3565;53.254;10.352;2023-07-31T11:39:31;20.40;1.00
7048;DHT22;3565;53.254;10.352;2023-07-31T11:42:02;20.50;1.00
7048;DHT22;3565;53.254;10.352;2023-07-31T11:44:39;20.20;1.00
7048;DHT22;3565;53.254;10.352;2023-07-31T11:47:10;20.10;1.00
7048;DHT22;3565;53.254;10.352;2023-07-31T11:49:40;20.20;1.00
7048;DHT22;3565;53.254;10.352;2023-07-31T11:52:10;19.80;1.00
7048;DHT22;3565;53.254;10.352;2023-07-31T11:54:40;20.10;1.00
7048;DHT22;3565;53.254;10.352;2023-07-31T11:57:09;19.80;1.00
7048;DHT22;3565;53.254;10.352;2023-07-31T11:59:40;19.90;1.00
7048;DHT22;3565;53.254;10.352;2023-07-31T12:02:09;19.60;1.00
7048;DHT22;3565;53.254;10.352;2023-07-31T12:04:38;19.40;1.00
7048;DHT22;3565;53.254;10.352;2023-07-31T12:07:07;19.60;1.00
7048;DHT22;3565;53.254;10.352;2023-07-31T12:09:36;19.50;1.00
7048;DHT22;3565;53.254;10.352;2023-07-31T12:12:09;19.50;1.00
7048;DHT22;3565;53.254;10.352;2023-07-31T12:14:41;19.60;1.00
7048;DHT22;3565;53.254;10.352;2023-07-31T12:17:11;19.50;1.00
7048;DHT22;3565;53.254;10.352;2023-07-31T12:19:40;19.50;1.00
7048;DHT22;3565;53.254;10.352;2023-07-31T12:22:13;19.60;1.00
7048;DHT22;3565;53.254;10.352;2023-07-31T12:24:43;19.40;1.00
7048;DHT22;3565;53.254;10.352;2023-07-31T12:27:14;19.30;1.00
7048;DHT22;3565;53.254;10.352;2023-07-31T12:29:44;19.20;1.00
7048;DHT22;3565;53.254;10.352;2023-07-31T12:32:21;19.30;1.00
7048;DHT22;3565;53.254;10.352;2023-07-31T12:34:51;19.50;1.00
7048;DHT22;3565;53.254;10.352;2023-07-31T12:37:21;19.70;1.00
7048;DHT22;3565;53.254;10.352;2023-07-31T12:42:31;19.90;1.00
7048;DHT22;3565;53.254;10.352;2023-07-31T12:45:00;20.10;1.00
7048;DHT22;3565;53.254;10.352;2023-07-31T12:47:29;19.90;1.00
7048;DHT22;3565;53.254;10.352;2023-07-31T12:52:39;19.60;1.00
7048;DHT22;3565;53.254;10.352;2023-07-31T12:55:09;19.60;1.00
7048;DHT22;3565;53.254;10.352;2023-07-31T12:57:39;19.50;1.00
7048;DHT22;3565;53.254;10.352;2023-07-31T13:00:12;19.30;1.00
7048;DHT22;3565;53.254;10.352;2023-07-31T13:05:19;19.20;1.00
7048;DHT22;3565;53.254;10.352;2023-07-31T13:07:48;19.00;1.00
7048;DHT22;3565;53.254;10.352;2023-07-31T13:10:17;19.10;1.00
7048;DHT22;3565;53.254;10.352;2023-07-31T13:12:46;19.20;1.00
7048;DHT22;3565;53.254;10.352;2023-07-31T13:15:16;19.00;1.00
7048;DHT22;3565;53.254;10.352;2023-07-31T13:17:50;18.80;1.00
7048;DHT22;3565;53.254;10.352;2023-07-31T13:20:22;18.80;1.00
7048;DHT22;3565;53.254;10.352;2023-07-31T13:22:52;18.80;1.00
7048;DHT22;3565;53.254;10.352;2023-07-31T13:28:05;19.00;1.00
7048;DHT22;3565;53.254;10.352;2023-07-31T13:30:35;18.90;1.00
7048;DHT22;3565;53.254;10.352;2023-07-31T13:33:05;19.10;1.00
7048;DHT22;3565;53.254;10.352;2023-07-31T13:35:35;19.20;1.00
7048;DHT22;3565;53.254;10.352;2023-07-31T13:38:07;18.90;1.00
7048;DHT22;3565;53.254;10.352;2023-07-31T13:40:37;18.90;1.00
7048;DHT22;3565;53.254;10.352;2023-07-31T13:43:10;18.80;1.00
7048;DHT22;3565;53.254;10.352;2023-07-31T13:45:40;18.90;1.00
7048;DHT22;3565;53.254;10.352;2023-07-31T13:48:12;18.80;1.00
7048;DHT22;3565;53.254;10.352;2023-07-31T13:50:43;18.50;1.00
7048;DHT22;3565;53.254;10.352;2023-07-31T13:53:14;18.70;1.00
7048;DHT22;3565;53.254;10.352;2023-07-31T13:55:43;18.80;1.00
7048;DHT22;3565;53.254;10.352;2023-07-31T13:58:14;18.70;1.00
7048;DHT22;3565;53.254;10.352;2023-07-31T14:03:25;18.80;1.00
7048;DHT22;3565;53.254;10.352;2023-07-31T14:08:36;18.70;1.00
7048;DHT22;3565;53.254;10.352;2023-07-31T14:11:09;18.70;1.00
7048;DHT22;3565;53.254;10.352;2023-07-31T14:13:38;18.70;1.00
7048;DHT22;3565;53.254;10.352;2023-07-31T14:16:11;18.80;1.00
7048;DHT22;3565;53.254;10.352;2023-07-31T14:18:43;18.80;1.00
7048;DHT22;3565;53.254;10.352;2023-07-31T14:21:13;18.80;1.00
7048;DHT22;3565;53.254;10.352;2023-07-31T14:23:44;19.00;1.00
7048;DHT22;3565;53.254;10.352;2023-07-31T14:26:17;18.90;1.00
7048;DHT22;3565;53.254;10.352;2023-07-31T14:28:46;19.00;1.00
7048;DHT22;3565;53.254;10.352;2023-07-31T14:31:17;19.10;1.00
7048;DHT22;3565;53.254;10.352;2023-07-31T14:33:49;18.90;1.00
7048;DHT22;3565;53.254;10.352;2023-07-31T14:39:02;18.80;1.00
7048;DHT22;3565;53.254;10.352;2023-07-31T14:41:32;18.90;1.00
7048;DHT22;3565;53.254;10.352;2023-07-31T14:44:02;18.80;1.00
7048;DHT22;3565;53.254;10.352;2023-07-31T14:46:32;19.00;1.00
7048;DHT22;3565;53.254;10.352;2023-07-31T14:49:04;19.00;1.00
7048;DHT22;3565;53.254;10.352;2023-07-31T14:51:35;19.00;1.00
7048;DHT22;3565;53.254;10.352;2023-07-31T14:54:05;19.10;1.00
7048;DHT22;3565;53.254;10.352;2023-07-31T14:56:35;19.00;1.00
7048;DHT22;3565;53.254;10.352;2023-07-31T15:01:42;18.80;1.00
7048;DHT22;3565;53.254;10.352;2023-07-31T15:04:13;18.80;1.00
7048;DHT22;3565;53.254;10.352;2023-07-31T15:06:44;18.90;1.00
7048;DHT22;3565;53.254;10.352;2023-07-31T15:11:55;18.60;1.00
7048;DHT22;3565;53.254;10.352;2023-07-31T15:14:27;18.70;1.00
7048;DHT22;3565;53.254;10.352;2023-07-31T15:19:36;18.70;1.00
7048;DHT22;3565;53.254;10.352;2023-07-31T15:22:08;18.60;1.00
7048;DHT22;3565;53.254;10.352;2023-07-31T15:24:39;18.70;1.00
7048;DHT22;3565;53.254;10.352;2023-07-31T15:27:09;18.70;1.00
7048;DHT22;3565;53.254;10.352;2023-07-31T15:32:16;18.50;1.00
7048;DHT22;3565;53.254;10.352;2023-07-31T15:34:46;18.60;1.00
7048;DHT22;3565;53.254;10.352;2023-07-31T15:37:15;18.50;1.00
7048;DHT22;3565;53.254;10.352;2023-07-31T15:39:45;18.60;1.00
7048;DHT22;3565;53.254;10.352;2023-07-31T15:44:52;18.60;1.00
7048;DHT22;3565;53.254;10.352;2023-07-31T15:47:21;18.80;1.00
7048;DHT22;3565;53.254;10.352;2023-07-31T15:49:50;19.00;1.00
7048;DHT22;3565;53.254;10.352;2023-07-31T15:52:19;18.90;1.00
7048;DHT22;3565;53.254;10.352;2023-07-31T15:54:48;18.90;1.00
7048;DHT22;3565;53.254;10.352;2023-07-31T15:59:55;19.10;1.00
7048;DHT22;3565;53.254;10.352;2023-07-31T16:02:24;19.20;1.00
7048;DHT22;3565;53.254;10.352;2023-07-31T16:04:53;19.30;1.00
7048;DHT22;3565;53.254;10.352;2023-07-31T16:07:22;19.20;1.00
7048;DHT22;3565;53.254;10.352;2023-07-31T16:09:52;19.00;1.00
7048;DHT22;3565;53.254;10.352;2023-07-31T16:12:21;19.10;1.00
7048;DHT22;3565;53.254;10.352;2023-07-31T16:14:50;19.20;1.00
7048;DHT22;3565;53.254;10.352;2023-07-31T16:19:56;19.00;1.00
7048;DHT22;3565;53.254;10.352;2023-07-31T16:22:25;19.00;1.00
7048;DHT22;3565;53.254;10.352;2023-07-31T16:24:54;19.10;1.00
7048;DHT22;3565;53.254;10.352;2023-07-31T16:27:24;19.10;1.00
7048;DHT22;3565;53.254;10.352;2023-07-31T16:32:32;19.00;1.00
7048;DHT22;3565;53.254;10.352;2023-07-31T16:37:39;19.10;1.00
7048;DHT22;3565;53.254;10.352;2023-07-31T16:40:10;19.00;1.00
7048;DHT22;3565;53.254;10.352;2023-07-31T16:42:39;19.00;1.00
7048;DHT22;3565;53.254;10.352;2023-07-31T16:47:46;18.90;1.00
7048;DHT22;3565;53.254;10.352;2023-07-31T16:52:52;18.60;1.00
7048;DHT22;3565;53.254;10.352;2023-07-31T16:55:21;18.50;1.00
7048;DHT22;3565;53.254;10.352;2023-07-31T16:57:51;18.50;1.00
7048;DHT22;3565;53.254;10.352;2023-07-31T17:00:22;18.60;1.00
7048;DHT22;3565;53.254;10.352;2023-07-31T17:02:52;18.70;1.00
7048;DHT22;3565;53.254;10.352;2023-07-31T17:05:21;18.60;1.00
7048;DHT22;3565;53.254;10.352;2023-07-31T17:07:51;18.60;1.00
7048;DHT22;3565;53.254;10.352;2023-07-31T17:10:20;18.60;1.00
7048;DHT22;3565;53.254;10.352;2023-07-31T17:12:49;18.70;1.00
7048;DHT22;3565;53.254;10.352;2023-07-31T17:15:18;18.70;1.00
7048;DHT22;3565;53.254;10.352;2023-07-31T17:17:49;18.70;1.00
7048;DHT22;3565;53.254;10.352;2023-07-31T17:22:55;18.50;1.00
7048;DHT22;3565;53.254;10.352;2023-07-31T17:25:24;18.40;1.00
7048;DHT22;3565;53.254;10.352;2023-07-31T17:27:55;18.30;1.00
7048;DHT22;3565;53.254;10.352;2023-07-31T17:33:03;18.30;1.00
7048;DHT22;3565;53.254;10.352;2023-07-31T17:35:32;18.20;1.00
7048;DHT22;3565;53.254;10.352;2023-07-31T17:38:01;18.10;1.00
7048;DHT22;3565;53.254;10.352;2023-07-31T17:40:30;18.10;1.00
7048;DHT22;3565;53.254;10.352;2023-07-31T17:42:59;18.00;1.00
7048;DHT22;3565;53.254;10.352;2023-07-31T17:45:28;18.00;1.00
7048;DHT22;3565;53.254;10.352;2023-07-31T17:47:58;18.10;1.00
7048;DHT22;3565;53.254;10.352;2023-07-31T17:50:27;18.00;1.00
7048;DHT22;3565;53.254;10.352;2023-07-31T17:52:57;18.00;1.00
7048;DHT22;3565;53.254;10.352;2023-07-31T17:55:26;18.10;1.00
7048;DHT22;3565;53.254;10.352;2023-07-31T17:57:55;18.00;1.00
7048;DHT22;3565;53.254;10.352;2023-07-31T18:03:03;18.00;1.00
7048;DHT22;3565;53.254;10.352;2023-07-31T18:08:12;18.10;1.00
7048;DHT22;3565;53.254;10.352;2023-07-31T18:10:45;18.10;1.00
7048;DHT22;3565;53.254;10.352;2023-07-31T18:13:14;18.10;1.00
7048;DHT22;3565;53.254;10.352;2023-07-31T18:15:47;18.00;1.00
7048;DHT22;3565;53.254;10.352;2023-07-31T18:18:16;18.00;1.00
7048;DHT22;3565;53.254;10.352;2023-07-31T18:20:45;18.00;1.00
7048;DHT22;3565;53.254;10.352;2023-07-31T18:25:51;18.00;1.00
7048;DHT22;3565;53.254;10.352;2023-07-31T18:28:20;18.00;1.00
7048;DHT22;3565;53.254;10.352;2023-07-31T18:30:49;18.00;1.00
7048;DHT22;3565;53.254;10.352;2023-07-31T18:35:55;18.00;1.00
7048;DHT22;3565;53.254;10.352;2023-07-31T18:38:25;17.90;1.00
7048;DHT22;3565;53.254;10.352;2023-07-31T18:40:54;17.90;1.00
7048;DHT22;3565;53.254;10.352;2023-07-31T18:43:23;17.80;1.00
7048;DHT22;3565;53.254;10.352;2023-07-31T18:48:30;17.80;1.00
7048;DHT22;3565;53.254;10.352;2023-07-31T18:50:59;17.90;1.00
7048;DHT22;3565;53.254;10.352;2023-07-31T18:53:28;17.90;1.00
7048;DHT22;3565;53.254;10.352;2023-07-31T18:58:36;17.80;1.00
7048;DHT22;3565;53.254;10.352;2023-07-31T19:01:05;17.80;1.00
7048;DHT22;3565;53.254;10.352;2023-07-31T19:03:34;17.80;1.00
7048;DHT22;3565;53.254;10.352;2023-07-31T19:08:42;17.70;1.00
7048;DHT22;3565;53.254;10.352;2023-07-31T19:11:11;17.70;1.00
7048;DHT22;3565;53.254;10.352;2023-07-31T19:16:18;17.60;1.00
7048;DHT22;3565;53.254;10.352;2023-07-31T19:18:47;17.60;1.00
7048;DHT22;3565;53.254;10.352;2023-07-31T19:21:16;17.70;1.00
7048;DHT22;3565;53.254;10.352;2023-07-31T19:23:46;17.70;1.00
7048;DHT22;3565;53.254;10.352;2023-07-31T19:26:15;17.70;1.00
7048;DHT22;3565;53.254;10.352;2023-07-31T19:28:44;17.60;1.00
7048;DHT22;3565;53.254;10.352;2023-07-31T19:33:50;17.70;1.00
7048;DHT22;3565;53.254;10.352;2023-07-31T19:36:19;17.60;1.00
7048;DHT22;3565;53.254;10.352;2023-07-31T19:38:50;17.60;1.00
7048;DHT22;3565;53.254;10.352;2023-07-31T19:41:19;17.50;1.00
7048;DHT22;3565;53.254;10.352;2023-07-31T19:43:48;17.50;1.00
7048;DHT22;3565;53.254;10.352;2023-07-31T19:46:17;17.50;1.00
7048;DHT22;3565;53.254;10.352;2023-07-31T19:48:48;17.50;1.00
7048;DHT22;3565;53.254;10.352;2023-07-31T19:51:17;17.50;1.00
7048;DHT22;3565;53.254;10.352;2023-07-31T19:53:46;17.40;1.00